createdAt,value
2024-03-29T00:02:47.110Z,0.00
2024-03-29T00:07:50.112Z,1.00
2024-03-29T00:12:53.117Z,0.00
2024-03-29T00:17:56.442Z,2.00
2024-03-29T00:22:59.574Z,1.00
2024-03-29T00:28:04.720Z,1.00
2024-03-29T00:33:07.573Z,2.33
2024-03-29T00:38:10.497Z,2.00
2024-03-29T00:43:13.592Z,3.00
2024-03-29T00:48:18.778Z,3.00
2024-03-29T00:53:21.758Z,3.00
2024-03-29T00:58:24.971Z,3.00
2024-03-29T01:03:29.911Z,3.67
2024-03-29T01:08:33.227Z,3.00
2024-03-29T01:13:36.238Z,2.50
2024-03-29T01:18:40.060Z,2.00
2024-03-29T01:23:43.080Z,2.00
2024-03-29T01:28:46.104Z,1.00
2024-03-29T01:33:49.038Z,0.00
2024-03-29T01:38:55.832Z,0.00
2024-03-29T01:43:58.947Z,0.00
2024-03-29T01:49:03.164Z,0.00
2024-03-29T01:54:06.287Z,0.00
2024-03-29T01:59:16.251Z,0.00
2024-03-29T02:04:19.572Z,1.00
2024-03-29T02:09:22.548Z,0.00
2024-03-29T02:14:25.591Z,1.00
2024-03-29T02:19:28.469Z,0.00
2024-03-29T02:24:31.413Z,0.00
2024-03-29T02:29:37.020Z,1.00
2024-03-29T02:34:40.088Z,0.00
2024-03-29T02:39:43.212Z,1.00
2024-03-29T02:44:47.710Z,0.00
2024-03-29T02:49:50.715Z,1.00
2024-03-29T02:54:53.671Z,1.00
2024-03-29T02:59:56.861Z,1.00
2024-03-29T03:05:01.942Z,1.00
2024-03-29T03:10:23.584Z,1.00
2024-03-29T03:15:26.484Z,1.00
2024-03-29T03:20:31.804Z,1.00
2024-03-29T03:25:35.570Z,1.00
2024-03-29T03:30:41.674Z,1.50
2024-03-29T03:35:45.459Z,1.00
2024-03-29T03:40:48.442Z,1.50
2024-03-29T03:45:51.571Z,1.00
2024-03-29T03:50:54.481Z,1.00
2024-03-29T03:55:57.464Z,1.00
2024-03-29T04:01:07.882Z,1.00
2024-03-29T04:06:10.788Z,3.00
2024-03-29T04:11:13.842Z,1.00
2024-03-29T04:16:16.754Z,1.00
2024-03-29T04:21:19.725Z,1.00
2024-03-29T04:26:23.820Z,2.67
2024-03-29T04:31:26.697Z,1.00
2024-03-29T04:36:29.666Z,3.00
2024-03-29T04:41:35.530Z,1.67
2024-03-29T04:46:38.454Z,2.00
2024-03-29T04:51:41.418Z,1.00
2024-03-29T04:56:44.663Z,1.00
2024-03-29T05:01:56.443Z,1.00
2024-03-29T05:06:59.748Z,1.00
2024-03-29T05:12:02.707Z,1.00
2024-03-29T05:17:05.650Z,2.00
2024-03-29T05:22:08.653Z,1.00
2024-03-29T05:27:12.891Z,1.00
2024-03-29T05:32:15.806Z,0.00
2024-03-29T05:37:19.597Z,0.00
2024-03-29T05:42:22.568Z,0.00
2024-03-29T05:47:25.515Z,1.00
2024-03-29T05:52:28.501Z,0.00
2024-03-29T05:57:33.051Z,1.00
2024-03-29T06:02:36.472Z,2.00
2024-03-29T06:07:39.524Z,0.00
2024-03-29T06:12:42.415Z,1.00
2024-03-29T06:17:46.923Z,0.50
2024-03-29T06:22:50.020Z,0.00
2024-03-29T06:27:53.054Z,1.00
2024-03-29T06:32:56.188Z,0.00
2024-03-29T06:37:59.392Z,0.00
2024-03-29T06:43:04.065Z,0.00
2024-03-29T06:48:07.570Z,0.00
2024-03-29T06:53:10.588Z,0.00
2024-03-29T06:58:13.677Z,0.00
2024-03-29T07:03:18.142Z,0.33
2024-03-29T07:08:21.933Z,0.00
2024-03-29T07:13:24.968Z,0.00
2024-03-29T07:18:28.561Z,0.00
2024-03-29T07:23:31.616Z,0.00
2024-03-29T07:28:34.796Z,0.00
2024-03-29T07:33:38.801Z,0.00
2024-03-29T07:38:41.901Z,1.00
2024-03-29T07:43:57.774Z,1.00
2024-03-29T07:49:01.186Z,1.00
2024-03-29T07:54:04.294Z,0.00
2024-03-29T07:59:07.364Z,0.00
2024-03-29T08:04:10.435Z,1.00
2024-03-29T08:09:15.159Z,0.00
2024-03-29T08:14:18.536Z,0.00
2024-03-29T08:19:24.719Z,0.00
2024-03-29T08:24:28.886Z,0.00
2024-03-29T08:29:31.917Z,0.00
2024-03-29T08:34:35.913Z,0.00
2024-03-29T08:39:39.161Z,0.00
2024-03-29T08:44:44.688Z,0.00
2024-03-29T08:49:48.013Z,0.00
2024-03-29T08:54:51.029Z,1.00
2024-03-29T08:59:54.543Z,0.00
2024-03-29T09:04:59.317Z,0.00
2024-03-29T09:10:02.285Z,0.00
2024-03-29T09:15:09.943Z,0.00
2024-03-29T09:20:13.544Z,0.00
2024-03-29T09:25:16.743Z,0.00
2024-03-29T09:30:20.902Z,0.00
2024-03-29T09:35:23.995Z,0.00
2024-03-29T09:40:28.335Z,0.00
2024-03-29T09:45:36.008Z,0.00
2024-03-29T09:50:39.404Z,0.00
2024-03-29T09:55:42.597Z,0.00
2024-03-29T10:00:46.268Z,0.00
2024-03-29T10:05:49.502Z,0.00
2024-03-29T10:10:53.183Z,0.00
2024-03-29T10:15:57.405Z,0.00
2024-03-29T10:21:04.391Z,0.00
2024-03-29T10:26:08.179Z,0.00
2024-03-29T10:31:12.797Z,0.00
2024-03-29T10:36:15.842Z,0.00
2024-03-29T10:41:19.244Z,0.00
2024-03-29T10:46:23.081Z,0.00
2024-03-29T10:51:26.174Z,1.67
2024-03-29T10:56:30.341Z,0.00
2024-03-29T11:01:34.388Z,0.00
2024-03-29T11:06:39.276Z,0.00
2024-03-29T11:11:49.516Z,0.00
2024-03-29T11:16:57.377Z,0.00
2024-03-29T11:22:01.584Z,0.00
2024-03-29T11:27:11.899Z,0.00
2024-03-29T11:32:15.942Z,0.00
2024-03-29T11:37:19.536Z,0.00
2024-03-29T11:42:46.776Z,0.00
2024-03-29T11:47:50.974Z,0.00
2024-03-29T11:52:54.304Z,0.00
2024-03-29T11:57:57.153Z,0.00
2024-03-29T12:03:00.201Z,0.00
2024-03-29T12:08:04.309Z,0.00
2024-03-29T12:13:07.747Z,0.00
2024-03-29T12:18:12.417Z,0.00
2024-03-29T12:23:15.444Z,0.00
2024-03-29T12:28:18.558Z,0.00
2024-03-29T12:33:22.809Z,0.00
2024-03-29T12:38:26.178Z,0.00
2024-03-29T12:43:29.606Z,0.00
2024-03-29T12:48:35.028Z,0.00
2024-03-29T12:53:40.241Z,0.00
2024-03-29T12:58:43.792Z,0.00
2024-03-29T13:03:46.820Z,0.00
2024-03-29T13:08:51.014Z,0.00
2024-03-29T13:13:54.606Z,0.00
2024-03-29T13:18:57.790Z,0.00
2024-03-29T13:24:00.856Z,0.00
2024-03-29T13:29:04.097Z,0.00
2024-03-29T13:34:13.287Z,0.00
2024-03-29T13:39:17.354Z,0.00
2024-03-29T13:44:20.699Z,0.00
2024-03-29T13:49:24.106Z,0.00
2024-03-29T13:54:27.029Z,0.00
2024-03-29T13:59:30.252Z,0.00
2024-03-29T14:04:33.264Z,0.00
2024-03-29T14:09:37.175Z,0.00
2024-03-29T14:14:40.652Z,0.00
2024-03-29T14:19:43.579Z,0.00
2024-03-29T14:24:46.630Z,1.00
2024-03-29T14:29:49.651Z,1.00
2024-03-29T14:34:53.724Z,1.00
2024-03-29T14:39:56.747Z,0.00
2024-03-29T14:44:59.866Z,0.00
2024-03-29T14:50:05.964Z,0.00
2024-03-29T14:55:09.159Z,0.00
2024-03-29T15:00:12.600Z,0.00
2024-03-29T15:05:15.605Z,0.00
2024-03-29T15:10:20.328Z,0.00
2024-03-29T15:15:23.384Z,0.00
2024-03-29T15:20:26.446Z,2.00
2024-03-29T15:25:29.566Z,0.00
2024-03-29T15:30:36.196Z,1.00
2024-03-29T15:35:39.538Z,0.00
2024-03-29T15:40:42.721Z,0.00
2024-03-29T15:45:46.166Z,1.00
2024-03-29T15:50:49.231Z,0.33
2024-03-29T15:55:52.707Z,1.33
2024-03-29T16:00:56.866Z,3.00
2024-03-29T16:05:59.864Z,1.00
2024-03-29T16:11:09.220Z,0.33
2024-03-29T16:16:12.532Z,0.00
2024-03-29T16:21:15.757Z,0.50
2024-03-29T16:26:18.867Z,1.00
2024-03-29T16:31:21.889Z,0.67
2024-03-29T16:36:25.219Z,1.00
2024-03-29T16:41:28.621Z,1.00
2024-03-29T16:46:31.599Z,1.00
2024-03-29T16:51:34.548Z,1.00
2024-03-29T16:56:37.692Z,2.00
2024-03-29T17:01:40.622Z,1.00
2024-03-29T17:06:43.593Z,1.00
2024-03-29T17:11:46.593Z,2.00
2024-03-29T17:16:51.309Z,1.33
2024-03-29T17:21:54.950Z,1.00
2024-03-29T17:26:59.242Z,1.00
2024-03-29T17:32:11.191Z,2.00
2024-03-29T17:37:16.492Z,1.00
2024-03-29T17:42:19.666Z,2.00
2024-03-29T17:47:23.422Z,4.00
2024-03-29T17:52:26.379Z,5.00
2024-03-29T17:57:29.331Z,3.00
2024-03-29T18:02:32.250Z,4.00
2024-03-29T18:07:35.328Z,2.00
2024-03-29T18:12:38.444Z,3.00
2024-03-29T18:17:41.649Z,3.00
2024-03-29T18:22:44.564Z,1.00
2024-03-29T18:27:47.529Z,2.50
2024-03-29T18:32:50.414Z,4.00
2024-03-29T18:37:53.428Z,3.00
2024-03-29T18:42:57.849Z,2.33
2024-03-29T18:48:00.827Z,3.00
2024-03-29T18:53:04.065Z,3.00
2024-03-29T18:58:06.983Z,4.00
2024-03-29T19:03:12.250Z,3.00
2024-03-29T19:08:15.390Z,3.00
2024-03-29T19:13:18.482Z,3.00
2024-03-29T19:18:21.576Z,2.00
2024-03-29T19:23:24.651Z,2.00
2024-03-29T19:28:28.391Z,3.00
2024-03-29T19:33:31.370Z,1.00
2024-03-29T19:38:34.424Z,2.00
2024-03-29T19:43:37.650Z,1.00
2024-03-29T19:48:40.600Z,2.00
2024-03-29T19:53:43.599Z,0.00
2024-03-29T19:58:46.760Z,2.00
2024-03-29T20:03:49.778Z,6.00
2024-03-29T20:08:52.722Z,3.00
2024-03-29T20:13:55.839Z,2.00
2024-03-29T20:19:02.948Z,2.00
2024-03-29T20:24:07.090Z,3.00
2024-03-29T20:29:10.179Z,6.00
2024-03-29T20:34:13.232Z,5.00
2024-03-29T20:39:17.331Z,4.00
2024-03-29T20:44:20.470Z,5.00
2024-03-29T20:49:23.582Z,2.33
2024-03-29T20:54:28.687Z,2.00
2024-03-29T20:59:34.675Z,3.00
2024-03-29T21:04:55.888Z,2.00
2024-03-29T21:09:58.758Z,2.00
2024-03-29T21:15:03.006Z,2.00
2024-03-29T21:20:10.746Z,5.00
2024-03-29T21:25:14.069Z,3.33
2024-03-29T21:30:19.501Z,2.00
2024-03-29T21:35:24.017Z,4.00
2024-03-29T21:40:27.605Z,4.00
2024-03-29T21:45:31.014Z,4.00
2024-03-29T21:50:33.893Z,4.00
2024-03-29T21:55:36.897Z,2.50
2024-03-29T22:00:39.823Z,3.67
2024-03-29T22:05:43.747Z,3.00
2024-03-29T22:10:46.754Z,3.00
2024-03-29T22:15:49.696Z,3.00
2024-03-29T22:20:53.266Z,3.00
2024-03-29T22:25:56.200Z,6.00
2024-03-29T22:30:59.247Z,3.00
2024-03-29T22:36:02.986Z,2.00
2024-03-29T22:41:05.901Z,1.00
2024-03-29T22:46:10.054Z,1.00
2024-03-29T22:51:13.153Z,2.00
2024-03-29T22:56:16.053Z,3.00
2024-03-29T23:01:18.958Z,2.00
2024-03-29T23:06:22.154Z,2.00
2024-03-29T23:11:25.095Z,1.00
2024-03-29T23:16:28.423Z,2.00
2024-03-29T23:21:31.733Z,3.00
2024-03-29T23:26:34.906Z,2.00
2024-03-29T23:31:37.770Z,1.00
2024-03-29T23:36:40.678Z,1.00
2024-03-29T23:41:43.538Z,1.00
2024-03-29T23:46:46.433Z,1.50
2024-03-29T23:51:49.457Z,3.00
2024-03-29T23:56:52.380Z,2.00
